createdAt,value
2018-09-15T00:01:44.654Z,81.80
2018-09-15T00:04:13.702Z,81.80
2018-09-15T00:06:42.765Z,81.80
2018-09-15T00:09:11.896Z,81.80
2018-09-15T00:11:40.952Z,81.90
2018-09-15T00:14:10.000Z,82.00
2018-09-15T00:16:39.128Z,82.20
2018-09-15T00:19:08.112Z,82.30
2018-09-15T00:21:37.367Z,82.50
2018-09-15T00:24:06.753Z,82.90
2018-09-15T00:26:35.791Z,82.80
2018-09-15T00:29:04.781Z,83.20
2018-09-15T00:31:33.861Z,83.30
2018-09-15T00:34:03.037Z,83.40
2018-09-15T00:36:32.096Z,83.30
2018-09-15T00:39:01.290Z,83.70
2018-09-15T00:41:30.299Z,83.60
2018-09-15T00:44:00.580Z,83.80
2018-09-15T00:46:29.698Z,83.80
2018-09-15T00:48:58.759Z,83.90
2018-09-15T00:51:27.822Z,84.10
2018-09-15T00:53:56.909Z,84.20
2018-09-15T00:56:26.156Z,84.50
2018-09-15T00:58:55.668Z,84.40
2018-09-15T01:01:24.873Z,84.30
2018-09-15T01:03:54.101Z,84.60
2018-09-15T01:06:23.145Z,84.70
2018-09-15T01:08:52.144Z,84.90
2018-09-15T01:11:21.138Z,84.90
2018-09-15T01:13:50.341Z,85.10
2018-09-15T01:16:19.259Z,85.00
2018-09-15T01:18:48.244Z,85.10
2018-09-15T01:21:17.224Z,84.80
2018-09-15T01:23:46.173Z,84.90
2018-09-15T01:26:15.672Z,84.90
2018-09-15T01:28:44.936Z,85.00
2018-09-15T01:31:14.003Z,85.10
2018-09-15T01:33:43.099Z,85.40
2018-09-15T01:36:12.379Z,85.50
2018-09-15T01:38:41.699Z,85.50
2018-09-15T01:41:10.747Z,85.70
2018-09-15T01:43:39.847Z,85.70
2018-09-15T01:46:08.837Z,85.60
2018-09-15T01:48:37.941Z,85.50
2018-09-15T01:51:06.924Z,85.30
2018-09-15T01:53:35.915Z,85.30
2018-09-15T01:56:06.022Z,85.30
2018-09-15T01:58:35.076Z,85.20
2018-09-15T02:01:05.214Z,85.30
2018-09-15T02:03:34.964Z,85.70
2018-09-15T02:06:04.120Z,87.00
2018-09-15T02:08:33.271Z,86.70
2018-09-15T02:11:02.430Z,86.70
2018-09-15T02:13:31.432Z,86.80
2018-09-15T02:16:00.869Z,87.10
2018-09-15T02:18:30.005Z,87.40
2018-09-15T02:20:59.130Z,87.70
2018-09-15T02:23:28.296Z,88.10
2018-09-15T02:25:57.491Z,88.40
2018-09-15T02:28:26.610Z,88.90
2018-09-15T02:30:55.797Z,89.60
2018-09-15T02:33:24.995Z,90.10
2018-09-15T02:35:53.943Z,90.20
2018-09-15T02:38:22.953Z,90.30
2018-09-15T02:40:52.069Z,90.40
2018-09-15T02:43:21.312Z,90.40
2018-09-15T02:45:50.418Z,90.50
2018-09-15T02:48:19.551Z,90.50
2018-09-15T02:50:49.154Z,90.50
2018-09-15T02:53:18.345Z,90.50
2018-09-15T02:55:47.415Z,90.60
2018-09-15T02:58:16.666Z,90.60
2018-09-15T03:00:45.710Z,90.70
2018-09-15T03:03:14.886Z,90.60
2018-09-15T03:05:43.924Z,90.60
2018-09-15T03:08:13.018Z,90.60
2018-09-15T03:10:42.128Z,90.60
2018-09-15T03:13:11.118Z,90.80
2018-09-15T03:15:40.252Z,90.60
2018-09-15T03:18:09.375Z,90.60
2018-09-15T03:20:38.474Z,90.50
2018-09-15T03:23:07.758Z,90.60
2018-09-15T03:25:37.017Z,90.40
2018-09-15T03:28:06.249Z,90.10
2018-09-15T03:30:35.535Z,89.80
2018-09-15T03:33:05.001Z,89.70
2018-09-15T03:35:34.143Z,89.60
2018-09-15T03:38:03.412Z,90.00
2018-09-15T03:40:32.678Z,89.00
2018-09-15T03:43:01.611Z,89.10
2018-09-15T03:45:30.758Z,88.60
2018-09-15T03:47:59.936Z,87.90
2018-09-15T03:50:29.003Z,87.80
2018-09-15T03:52:58.064Z,86.90
2018-09-15T03:55:27.211Z,86.20
2018-09-15T03:57:56.281Z,85.50
2018-09-15T04:00:25.446Z,85.20
2018-09-15T04:02:54.540Z,84.60
2018-09-15T04:05:23.857Z,84.00
2018-09-15T04:07:53.309Z,83.50
2018-09-15T04:10:22.554Z,83.10
2018-09-15T04:12:52.330Z,82.90
2018-09-15T04:15:21.458Z,82.70
2018-09-15T04:17:50.476Z,82.60
2018-09-15T04:20:19.538Z,82.80
2018-09-15T04:22:48.892Z,82.50
2018-09-15T04:25:18.249Z,82.00
2018-09-15T04:27:47.320Z,81.50
2018-09-15T04:30:16.394Z,81.00
2018-09-15T04:32:45.874Z,80.70
2018-09-15T04:35:15.132Z,79.80
2018-09-15T04:37:44.280Z,79.30
2018-09-15T04:40:13.499Z,79.00
2018-09-15T04:42:42.645Z,78.70
2018-09-15T04:45:11.942Z,78.40
2018-09-15T04:47:41.104Z,78.30
2018-09-15T04:50:10.364Z,78.30
2018-09-15T04:52:39.513Z,78.20
2018-09-15T04:55:08.813Z,78.20
2018-09-15T04:57:38.161Z,77.80
2018-09-15T05:00:07.994Z,77.60
2018-09-15T05:02:37.031Z,77.50
2018-09-15T05:05:06.109Z,77.60
2018-09-15T05:07:35.411Z,77.40
2018-09-15T05:10:04.425Z,77.10
2018-09-15T05:12:33.544Z,77.00
2018-09-15T05:15:02.692Z,76.80
2018-09-15T05:17:31.768Z,76.80
2018-09-15T05:20:00.937Z,77.00
2018-09-15T05:22:30.245Z,77.10
2018-09-15T05:24:59.359Z,77.10
2018-09-15T05:27:28.746Z,76.80
2018-09-15T05:29:57.920Z,77.00
2018-09-15T05:32:27.623Z,76.90
2018-09-15T05:34:56.716Z,76.60
2018-09-15T05:37:26.065Z,76.70
2018-09-15T05:39:55.266Z,76.60
2018-09-15T05:42:24.816Z,76.00
2018-09-15T05:44:55.004Z,75.70
2018-09-15T05:47:24.147Z,75.40
2018-09-15T05:49:53.283Z,75.30
2018-09-15T05:52:22.466Z,74.90
2018-09-15T05:54:53.483Z,74.50
2018-09-15T05:57:22.678Z,74.50
2018-09-15T05:59:51.906Z,74.50
2018-09-15T06:02:23.045Z,74.50
2018-09-15T06:04:52.171Z,74.40
2018-09-15T06:07:21.809Z,74.20
2018-09-15T06:09:51.285Z,74.10
2018-09-15T06:12:20.564Z,73.50
2018-09-15T06:14:50.210Z,73.30
2018-09-15T06:17:19.286Z,72.90
2018-09-15T06:19:48.363Z,72.70
2018-09-15T06:22:17.667Z,72.60
2018-09-15T06:24:47.868Z,72.70
2018-09-15T06:27:17.360Z,72.30
2018-09-15T06:29:46.618Z,72.10
2018-09-15T06:32:15.874Z,71.90
2018-09-15T06:34:45.112Z,71.90
2018-09-15T06:37:14.734Z,71.60
2018-09-15T06:39:44.346Z,71.60
2018-09-15T06:42:13.680Z,71.70
2018-09-15T06:44:42.720Z,71.70
2018-09-15T06:47:11.887Z,71.60
2018-09-15T06:49:41.008Z,71.60
2018-09-15T06:52:10.049Z,71.50
2018-09-15T06:54:39.504Z,71.40
2018-09-15T06:57:08.705Z,71.30
2018-09-15T06:59:37.964Z,71.00
2018-09-15T07:02:07.078Z,71.50
2018-09-15T07:04:36.305Z,68.20
2018-09-15T07:07:05.727Z,63.30
2018-09-15T07:09:34.737Z,60.70
2018-09-15T07:12:03.957Z,57.40
2018-09-15T07:14:33.625Z,55.50
2018-09-15T07:17:02.783Z,54.80
2018-09-15T07:19:32.142Z,56.60
2018-09-15T07:22:01.199Z,54.70
2018-09-15T07:24:30.725Z,53.70
2018-09-15T07:27:00.083Z,52.20
2018-09-15T07:29:29.231Z,52.10
2018-09-15T07:31:58.421Z,52.30
2018-09-15T07:34:27.378Z,50.60
2018-09-15T07:36:56.486Z,49.70
2018-09-15T07:39:25.491Z,48.80
2018-09-15T07:41:54.480Z,47.80
2018-09-15T07:44:23.486Z,50.10
2018-09-15T07:46:52.649Z,50.50
2018-09-15T07:49:21.627Z,48.70
2018-09-15T07:51:50.960Z,48.90
2018-09-15T07:54:20.046Z,47.60
2018-09-15T07:56:49.096Z,47.80
2018-09-15T07:59:18.059Z,47.60
2018-09-15T08:01:47.426Z,47.50
2018-09-15T08:04:16.401Z,47.70
2018-09-15T08:06:45.439Z,47.70
2018-09-15T08:09:14.655Z,47.70
2018-09-15T08:11:43.705Z,47.70
2018-09-15T08:14:12.747Z,48.40
2018-09-15T08:16:41.798Z,48.90
2018-09-15T08:19:10.818Z,48.30
2018-09-15T08:21:39.927Z,47.20
2018-09-15T08:24:08.965Z,45.90
2018-09-15T08:26:37.927Z,44.90
2018-09-15T08:29:06.945Z,44.60
2018-09-15T08:31:35.883Z,43.50
2018-09-15T08:34:04.910Z,43.10
2018-09-15T08:36:33.862Z,43.80
2018-09-15T08:39:02.942Z,44.40
2018-09-15T08:41:32.044Z,44.30
2018-09-15T08:44:01.075Z,43.10
2018-09-15T08:46:30.028Z,43.80
2018-09-15T08:48:59.122Z,43.50
2018-09-15T08:51:28.156Z,42.20
2018-09-15T08:53:57.242Z,44.60
2018-09-15T08:56:26.320Z,43.40
2018-09-15T08:58:55.402Z,44.20
2018-09-15T09:01:24.396Z,43.70
2018-09-15T09:03:53.479Z,44.60
2018-09-15T09:06:22.540Z,48.30
2018-09-15T09:08:51.724Z,50.70
2018-09-15T09:11:20.724Z,52.20
2018-09-15T09:13:51.578Z,52.50
2018-09-15T09:16:20.515Z,52.50
2018-09-15T09:18:49.512Z,51.40
2018-09-15T09:21:18.503Z,48.70
2018-09-15T09:23:47.511Z,46.90
2018-09-15T09:26:16.721Z,45.10
2018-09-15T09:28:45.783Z,44.60
2018-09-15T09:31:14.876Z,42.90
2018-09-15T09:33:43.842Z,42.80
2018-09-15T09:36:13.077Z,41.60
2018-09-15T09:38:42.087Z,42.70
2018-09-15T09:41:11.133Z,42.80
2018-09-15T09:43:40.079Z,42.90
2018-09-15T09:48:57.945Z,41.90
2018-09-15T09:51:27.017Z,41.80
2018-09-15T09:53:56.118Z,42.20
2018-09-15T09:56:25.154Z,44.30
2018-09-15T09:58:54.104Z,43.60
2018-09-15T10:01:59.666Z,41.40
2018-09-15T10:04:29.848Z,42.90
2018-09-15T10:06:59.000Z,42.10
2018-09-15T10:09:28.910Z,43.20
2018-09-15T10:11:57.884Z,42.70
2018-09-15T10:14:26.866Z,42.60
2018-09-15T10:16:55.828Z,44.20
2018-09-15T10:19:24.974Z,45.20
2018-09-15T10:21:53.920Z,45.20
2018-09-15T10:24:22.960Z,46.00
2018-09-15T10:26:52.067Z,44.10
2018-09-15T10:29:21.081Z,43.40
2018-09-15T10:31:50.098Z,43.60
2018-09-15T10:34:19.349Z,44.20
2018-09-15T10:36:48.395Z,44.10
2018-09-15T10:39:17.434Z,42.60
2018-09-15T10:41:46.517Z,42.70
2018-09-15T10:44:15.544Z,43.00
2018-09-15T10:46:44.609Z,45.80
2018-09-15T10:49:13.541Z,47.50
2018-09-15T10:51:42.509Z,48.10
2018-09-15T10:54:11.607Z,47.00
2018-09-15T10:56:40.691Z,45.90
2018-09-15T10:59:09.697Z,46.00
2018-09-15T11:01:38.673Z,47.40
2018-09-15T11:04:07.780Z,47.30
2018-09-15T11:06:36.784Z,48.00
2018-09-15T11:09:07.813Z,48.50
2018-09-15T11:11:36.918Z,45.50
2018-09-15T11:14:05.966Z,45.40
2018-09-15T11:16:34.967Z,46.50
2018-09-15T11:19:03.944Z,48.80
2018-09-15T11:21:33.034Z,49.00
2018-09-15T11:24:02.075Z,47.50
2018-09-15T11:26:31.076Z,47.30
2018-09-15T11:29:00.098Z,47.30
2018-09-15T11:31:28.998Z,48.50
2018-09-15T11:33:57.968Z,49.20
2018-09-15T11:36:27.031Z,48.30
2018-09-15T11:38:56.213Z,47.30
2018-09-15T11:41:25.194Z,47.10
2018-09-15T11:43:54.419Z,45.40
2018-09-15T11:46:24.070Z,44.70
2018-09-15T11:48:53.061Z,44.20
2018-09-15T11:51:22.134Z,43.40
2018-09-15T11:53:51.419Z,44.40
2018-09-15T11:56:20.343Z,45.50
2018-09-15T11:58:49.372Z,43.10
2018-09-15T12:01:18.463Z,42.70
2018-09-15T12:03:47.466Z,44.10
2018-09-15T12:06:16.483Z,44.30
2018-09-15T12:08:45.545Z,45.50
2018-09-15T12:11:14.628Z,46.70
2018-09-15T12:13:43.660Z,46.40
2018-09-15T12:16:12.807Z,47.70
2018-09-15T12:18:41.816Z,48.20
2018-09-15T12:21:10.936Z,48.50
2018-09-15T12:23:39.902Z,48.50
2018-09-15T12:26:08.918Z,48.10
2018-09-15T12:28:37.932Z,46.90
2018-09-15T12:31:07.039Z,45.80
2018-09-15T12:33:36.150Z,44.70
2018-09-15T12:36:05.079Z,43.60
2018-09-15T12:38:34.078Z,43.40
2018-09-15T12:41:03.187Z,43.90
2018-09-15T12:43:32.174Z,43.70
2018-09-15T12:46:01.299Z,44.50
2018-09-15T12:48:30.341Z,44.10
2018-09-15T12:50:59.335Z,44.80
2018-09-15T12:53:28.523Z,44.80
2018-09-15T12:55:57.685Z,43.80
2018-09-15T12:58:26.921Z,43.90
2018-09-15T13:00:55.969Z,43.90
2018-09-15T13:03:25.020Z,44.70
2018-09-15T13:05:54.123Z,44.10
2018-09-15T13:08:23.164Z,44.70
2018-09-15T13:10:52.136Z,46.30
2018-09-15T13:13:21.236Z,45.70
2018-09-15T13:15:50.242Z,45.80
2018-09-15T13:18:19.424Z,45.70
2018-09-15T13:20:48.420Z,46.30
2018-09-15T13:23:17.502Z,46.60
2018-09-15T13:25:46.766Z,46.90
2018-09-15T13:28:15.744Z,47.50
2018-09-15T13:30:44.843Z,48.40
2018-09-15T13:33:13.772Z,48.20
2018-09-15T13:35:42.812Z,48.20
2018-09-15T13:38:11.928Z,48.40
2018-09-15T13:40:41.076Z,48.30
2018-09-15T13:43:10.044Z,48.10
2018-09-15T13:45:39.019Z,47.60
2018-09-15T13:48:08.007Z,47.30
2018-09-15T13:50:37.008Z,47.00
2018-09-15T13:53:06.139Z,47.20
2018-09-15T13:55:35.281Z,46.40
2018-09-15T13:58:04.291Z,46.00
2018-09-15T14:00:33.339Z,45.30
2018-09-15T14:03:02.350Z,44.50
2018-09-15T14:05:31.518Z,44.10
2018-09-15T14:08:00.502Z,45.30
2018-09-15T14:10:29.604Z,45.20
2018-09-15T14:12:58.520Z,45.00
2018-09-15T14:15:27.799Z,45.50
2018-09-15T14:17:56.885Z,45.80
2018-09-15T14:20:25.910Z,46.00
2018-09-15T14:22:55.028Z,46.50
2018-09-15T14:25:23.991Z,46.60
2018-09-15T14:27:52.985Z,46.80
2018-09-15T14:30:22.225Z,46.90
2018-09-15T14:32:51.277Z,47.60
2018-09-15T14:35:20.340Z,47.80
2018-09-15T14:37:49.899Z,48.30
2018-09-15T14:40:18.943Z,48.70
2018-09-15T14:42:48.064Z,48.70
2018-09-15T14:45:17.571Z,48.70
2018-09-15T14:47:46.603Z,48.80
2018-09-15T14:50:15.600Z,48.90
2018-09-15T14:52:44.773Z,49.00
2018-09-15T14:55:13.812Z,49.00
2018-09-15T14:57:42.933Z,48.80
2018-09-15T15:00:12.006Z,48.90
2018-09-15T15:02:40.976Z,48.70
2018-09-15T15:05:10.306Z,48.40
2018-09-15T15:07:39.723Z,48.50
2018-09-15T15:10:08.927Z,48.50
2018-09-15T15:12:38.065Z,48.60
2018-09-15T15:15:07.370Z,48.90
2018-09-15T15:17:36.677Z,49.20
2018-09-15T15:20:06.417Z,49.20
2018-09-15T15:22:35.513Z,49.30
2018-09-15T15:25:05.293Z,49.40
2018-09-15T15:27:34.322Z,49.60
2018-09-15T15:30:03.479Z,50.00
2018-09-15T15:32:32.614Z,50.00
2018-09-15T15:35:01.759Z,50.10
2018-09-15T15:37:31.129Z,50.20
2018-09-15T15:40:00.123Z,50.10
2018-09-15T15:42:29.115Z,50.80
2018-09-15T15:44:58.084Z,50.20
2018-09-15T15:47:27.099Z,50.20
2018-09-15T15:49:56.168Z,50.40
2018-09-15T15:52:25.237Z,50.50
2018-09-15T15:54:55.203Z,50.80
2018-09-15T15:57:24.247Z,51.00
2018-09-15T15:59:53.601Z,51.00
2018-09-15T16:02:22.766Z,51.40
2018-09-15T16:04:52.028Z,51.50
2018-09-15T16:07:20.994Z,52.10
2018-09-15T16:09:50.015Z,52.40
2018-09-15T16:12:19.008Z,52.80
2018-09-15T16:14:48.171Z,53.10
2018-09-15T16:17:17.348Z,53.30
2018-09-15T16:19:46.356Z,53.50
2018-09-15T16:22:15.439Z,53.50
2018-09-15T16:24:44.608Z,53.70
2018-09-15T16:27:13.853Z,53.30
2018-09-15T16:29:42.894Z,53.60
2018-09-15T16:32:11.970Z,52.40
2018-09-15T16:34:42.346Z,52.90
2018-09-15T16:37:11.320Z,52.20
2018-09-15T16:39:40.363Z,52.10
2018-09-15T16:42:09.422Z,52.20
2018-09-15T16:44:38.451Z,52.30
2018-09-15T16:47:07.465Z,52.50
2018-09-15T16:49:36.651Z,52.50
2018-09-15T16:52:05.585Z,52.60
2018-09-15T16:54:34.702Z,52.80
2018-09-15T16:57:03.725Z,53.00
2018-09-15T16:59:32.693Z,53.20
2018-09-15T17:02:01.704Z,53.50
2018-09-15T17:04:31.327Z,53.70
2018-09-15T17:07:01.343Z,53.90
2018-09-15T17:09:30.531Z,54.30
2018-09-15T17:12:00.178Z,54.70
2018-09-15T17:14:29.865Z,54.90
2018-09-15T17:16:58.881Z,55.10
2018-09-15T17:19:28.114Z,55.50
2018-09-15T17:21:57.223Z,55.60
2018-09-15T17:24:26.211Z,55.90
2018-09-15T17:26:55.259Z,56.00
2018-09-15T17:29:24.293Z,56.10
2018-09-15T17:32:00.069Z,56.30
2018-09-15T17:34:29.137Z,56.40
2018-09-15T17:36:58.253Z,56.50
2018-09-15T17:39:27.305Z,56.80
2018-09-15T17:41:56.287Z,57.00
2018-09-15T17:44:25.288Z,57.30
2018-09-15T17:46:54.270Z,57.50
2018-09-15T17:49:23.311Z,57.70
2018-09-15T17:51:52.404Z,58.40
2018-09-15T17:54:21.478Z,58.00
2018-09-15T17:56:50.621Z,58.20
2018-09-15T17:59:19.630Z,58.40
2018-09-15T18:01:49.072Z,58.60
2018-09-15T18:04:18.072Z,58.80
2018-09-15T18:06:47.071Z,59.00
2018-09-15T18:09:16.228Z,59.20
2018-09-15T18:11:45.315Z,59.40
2018-09-15T18:14:14.389Z,59.60
2018-09-15T18:16:44.432Z,59.80
2018-09-15T18:19:13.464Z,60.00
2018-09-15T18:21:42.592Z,60.20
2018-09-15T18:24:11.560Z,60.50
2018-09-15T18:26:40.692Z,60.60
2018-09-15T18:29:09.670Z,60.50
2018-09-15T18:31:38.740Z,60.50
2018-09-15T18:34:07.762Z,60.30
2018-09-15T18:36:36.891Z,61.20
2018-09-15T18:39:07.995Z,60.60
2018-09-15T18:41:37.000Z,60.90
2018-09-15T18:44:06.280Z,61.70
2018-09-15T18:46:35.634Z,62.00
2018-09-15T18:49:05.090Z,62.40
2018-09-15T18:51:34.194Z,62.80
2018-09-15T18:54:03.671Z,63.30
2018-09-15T18:56:32.776Z,63.50
2018-09-15T18:59:01.635Z,63.80
2018-09-15T19:01:30.685Z,64.00
2018-09-15T19:03:59.683Z,63.80
2018-09-15T19:06:28.856Z,63.90
2018-09-15T19:08:57.851Z,64.00
2018-09-15T19:11:26.963Z,64.10
2018-09-15T19:13:56.163Z,64.10
2018-09-15T19:16:25.200Z,64.20
2018-09-15T19:18:54.207Z,64.40
2018-09-15T19:21:23.280Z,64.20
2018-09-15T19:23:52.503Z,65.10
2018-09-15T19:26:21.712Z,64.50
2018-09-15T19:28:50.945Z,64.50
2018-09-15T19:31:20.126Z,65.10
2018-09-15T19:33:49.490Z,65.30
2018-09-15T19:36:18.477Z,65.20
2018-09-15T19:38:47.885Z,65.10
2018-09-15T19:41:16.929Z,66.10
2018-09-15T19:43:46.218Z,68.00
2018-09-15T19:46:15.375Z,68.00
2018-09-15T19:48:44.556Z,67.60
2018-09-15T19:51:14.587Z,67.50
2018-09-15T19:53:44.651Z,66.80
2018-09-15T19:56:13.738Z,67.60
2018-09-15T19:58:42.837Z,69.40
2018-09-15T20:01:11.905Z,71.00
2018-09-15T20:03:40.988Z,72.10
2018-09-15T20:06:10.576Z,73.50
2018-09-15T20:08:39.495Z,75.30
2018-09-15T20:11:08.637Z,76.00
2018-09-15T20:13:37.785Z,77.50
2018-09-15T20:16:05.993Z,78.30
2018-09-15T20:18:34.084Z,77.80
2018-09-15T20:21:02.226Z,79.80
2018-09-15T20:23:31.988Z,80.00
2018-09-15T20:26:01.347Z,80.50
2018-09-15T20:28:30.508Z,80.00
2018-09-15T20:31:00.126Z,80.60
2018-09-15T20:33:29.677Z,82.00
2018-09-15T20:35:58.838Z,80.50
2018-09-15T20:38:29.006Z,82.80
2018-09-15T20:40:58.160Z,81.80
2018-09-15T20:43:27.317Z,80.90
2018-09-15T20:45:56.328Z,81.00
2018-09-15T20:48:25.438Z,80.80
2018-09-15T20:50:54.452Z,81.30
2018-09-15T20:53:23.445Z,82.60
2018-09-15T20:55:52.586Z,81.70
2018-09-15T20:58:22.033Z,81.10
2018-09-15T21:00:52.080Z,82.90
2018-09-15T21:03:21.216Z,83.00
2018-09-15T21:05:50.464Z,82.90
2018-09-15T21:08:19.608Z,82.70
2018-09-15T21:10:48.610Z,81.50
2018-09-15T21:13:17.849Z,81.50
2018-09-15T21:15:47.286Z,82.50
2018-09-15T21:18:16.459Z,82.60
2018-09-15T21:20:45.616Z,82.30
2018-09-15T21:23:14.855Z,82.90
2018-09-15T21:25:43.873Z,83.00
2018-09-15T21:28:13.113Z,83.40
2018-09-15T21:30:42.217Z,83.70
2018-09-15T21:33:11.307Z,84.10
2018-09-15T21:35:40.416Z,85.00
2018-09-15T21:38:09.509Z,85.10
2018-09-15T21:40:38.698Z,84.60
2018-09-15T21:43:07.700Z,85.30
2018-09-15T21:45:36.865Z,84.20
2018-09-15T21:48:05.970Z,85.10
2018-09-15T21:50:37.871Z,86.10
2018-09-15T21:53:06.903Z,86.90
2018-09-15T21:55:36.064Z,86.00
2018-09-15T21:58:05.262Z,87.70
2018-09-15T22:00:34.580Z,86.50
2018-09-15T22:03:05.944Z,86.80
2018-09-15T22:05:35.843Z,87.00
2018-09-15T22:08:12.126Z,87.30
2018-09-15T22:10:43.340Z,88.50
2018-09-15T22:16:57.157Z,88.30
2018-09-15T22:19:26.948Z,88.80
2018-09-15T22:21:55.943Z,88.20
2018-09-15T22:24:24.958Z,88.20
2018-09-15T22:26:54.258Z,89.10
2018-09-15T22:29:23.369Z,89.10
2018-09-15T22:31:52.495Z,89.00
2018-09-15T22:34:21.673Z,89.30
2018-09-15T22:36:50.664Z,89.50
2018-09-15T22:39:19.790Z,90.20
2018-09-15T22:41:48.831Z,90.40
2018-09-15T22:44:17.907Z,90.40
2018-09-15T22:46:47.021Z,90.50
2018-09-15T22:49:16.150Z,90.50
2018-09-15T22:51:45.267Z,90.60
2018-09-15T22:54:14.304Z,90.60
2018-09-15T22:56:43.340Z,90.70
2018-09-15T22:59:12.346Z,90.70
2018-09-15T23:01:41.428Z,90.80
2018-09-15T23:04:12.542Z,90.90
2018-09-15T23:06:41.604Z,90.70
2018-09-15T23:09:11.788Z,91.20
2018-09-15T23:11:40.851Z,91.00
2018-09-15T23:14:09.998Z,90.50
2018-09-15T23:16:39.131Z,90.20
2018-09-15T23:19:08.260Z,89.50
2018-09-15T23:21:37.294Z,89.70
2018-09-15T23:24:06.402Z,89.20
2018-09-15T23:26:35.387Z,89.70
2018-09-15T23:29:04.477Z,90.00
2018-09-15T23:31:33.618Z,90.00
2018-09-15T23:34:02.834Z,90.00
2018-09-15T23:36:32.118Z,89.70
2018-09-15T23:39:01.099Z,90.10
2018-09-15T23:41:30.179Z,90.30
2018-09-15T23:43:59.211Z,90.30
2018-09-15T23:46:28.331Z,90.40
2018-09-15T23:48:57.583Z,90.40
2018-09-15T23:51:26.675Z,90.50
2018-09-15T23:53:56.367Z,90.60
2018-09-15T23:56:25.851Z,90.50
2018-09-15T23:58:55.067Z,90.10
